createdAt,value
2022-12-05T00:01:15.458Z,9.80
2022-12-05T00:03:46.250Z,9.90
2022-12-05T00:06:16.298Z,9.17
2022-12-05T00:08:48.167Z,9.27
2022-12-05T00:11:20.437Z,7.90
2022-12-05T00:13:51.637Z,7.87
2022-12-05T00:16:24.695Z,7.10
2022-12-05T00:18:55.198Z,7.00
2022-12-05T00:21:44.877Z,6.70
2022-12-05T00:24:18.067Z,7.20
2022-12-05T00:27:06.818Z,6.90
2022-12-05T00:29:37.009Z,7.00
2022-12-05T00:32:25.389Z,6.70
2022-12-05T00:34:58.078Z,6.90
2022-12-05T00:37:27.988Z,6.57
2022-12-05T00:40:18.779Z,6.40
2022-12-05T00:42:52.248Z,6.87
2022-12-05T00:45:23.020Z,7.30
2022-12-05T00:47:53.030Z,7.63
2022-12-05T00:50:23.061Z,7.73
2022-12-05T00:52:53.680Z,7.93
2022-12-05T00:55:25.340Z,8.17
2022-12-05T00:57:55.558Z,8.77
2022-12-05T01:00:28.128Z,8.77
2022-12-05T01:03:16.808Z,8.77
2022-12-05T01:05:47.010Z,9.03
2022-12-05T01:08:17.167Z,8.13
2022-12-05T01:10:57.484Z,8.57
2022-12-05T01:13:28.834Z,8.37
2022-12-05T01:15:59.054Z,9.60
2022-12-05T01:18:29.688Z,9.77
2022-12-05T01:21:00.214Z,10.00
2022-12-05T01:23:30.332Z,10.13
2022-12-05T01:26:02.101Z,9.90
2022-12-05T01:28:32.250Z,9.77
2022-12-05T01:31:23.546Z,9.80
2022-12-05T01:34:12.283Z,8.87
2022-12-05T01:36:43.023Z,8.83
2022-12-05T01:39:14.384Z,8.77
2022-12-05T01:41:48.795Z,8.47
2022-12-05T01:44:55.459Z,8.63
2022-12-05T01:47:31.110Z,7.83
2022-12-05T01:50:20.679Z,8.27
2022-12-05T01:52:51.002Z,7.93
2022-12-05T01:55:23.484Z,8.67
2022-12-05T01:57:55.441Z,6.90
2022-12-05T02:00:26.279Z,7.07
2022-12-05T02:03:00.491Z,7.10
2022-12-05T02:05:33.494Z,6.97
2022-12-05T02:08:07.534Z,7.00
2022-12-05T02:10:57.681Z,7.00
2022-12-05T02:13:44.815Z,7.70
2022-12-05T02:16:25.204Z,7.67
2022-12-05T02:19:04.696Z,7.33
2022-12-05T02:22:03.075Z,8.10
2022-12-05T02:24:56.442Z,9.00
2022-12-05T02:28:07.010Z,9.83
2022-12-05T02:30:43.980Z,9.27
2022-12-05T02:33:23.321Z,9.80
2022-12-05T02:36:03.276Z,9.27
2022-12-05T02:38:42.004Z,9.60
2022-12-05T02:41:19.078Z,10.10
2022-12-05T02:43:57.499Z,10.10
2022-12-05T02:46:32.777Z,9.03
2022-12-05T02:49:22.923Z,9.73
2022-12-05T02:51:59.180Z,9.33
2022-12-05T02:54:33.805Z,9.60
2022-12-05T02:57:04.130Z,9.07
2022-12-05T02:59:34.241Z,9.53
2022-12-05T03:02:06.657Z,8.80
2022-12-05T03:04:37.592Z,8.50
2022-12-05T03:07:11.649Z,8.97
2022-12-05T03:09:47.938Z,9.43
2022-12-05T03:12:21.124Z,9.97
2022-12-05T03:14:56.157Z,9.47
2022-12-05T03:17:47.168Z,8.80
2022-12-05T03:20:25.374Z,9.13
2022-12-05T03:23:00.201Z,6.50
2022-12-05T03:25:38.414Z,6.30
2022-12-05T03:28:16.724Z,6.53
2022-12-05T03:30:49.701Z,6.87
2022-12-05T03:33:25.154Z,6.20
2022-12-05T03:36:03.676Z,6.73
2022-12-05T03:38:37.885Z,6.20
2022-12-05T03:41:28.592Z,5.67
2022-12-05T03:44:03.409Z,5.63
2022-12-05T03:46:37.311Z,5.60
2022-12-05T03:49:34.279Z,5.33
2022-12-05T03:52:10.539Z,5.37
2022-12-05T03:54:44.541Z,5.37
2022-12-05T03:57:18.643Z,5.23
2022-12-05T03:59:54.932Z,4.90
2022-12-05T04:02:47.675Z,5.20
2022-12-05T04:05:23.218Z,4.70
2022-12-05T04:08:00.017Z,4.20
2022-12-05T04:10:33.903Z,4.30
2022-12-05T04:13:18.246Z,3.97
2022-12-05T04:16:10.359Z,3.90
2022-12-05T04:18:46.661Z,4.40
2022-12-05T04:21:39.804Z,3.63
2022-12-05T04:24:30.512Z,3.83
2022-12-05T04:27:25.511Z,4.20
2022-12-05T04:30:04.239Z,4.30
2022-12-05T04:32:40.702Z,4.90
2022-12-05T04:35:16.243Z,4.80
2022-12-05T04:37:51.800Z,4.20
2022-12-05T04:40:26.521Z,4.23
2022-12-05T04:42:58.793Z,4.10
2022-12-05T04:45:35.447Z,4.93
2022-12-05T04:48:15.010Z,3.87
2022-12-05T04:50:50.850Z,4.00
2022-12-05T04:53:24.350Z,4.00
2022-12-05T04:55:59.794Z,4.00
2022-12-05T04:58:32.375Z,3.60
2022-12-05T05:01:08.758Z,3.40
2022-12-05T05:03:44.697Z,3.50
2022-12-05T05:06:15.409Z,3.50
2022-12-05T05:08:52.099Z,3.30
2022-12-05T05:11:41.892Z,3.60
2022-12-05T05:14:12.107Z,3.20
2022-12-05T05:16:43.861Z,3.40
2022-12-05T05:19:15.512Z,3.03
2022-12-05T05:21:45.832Z,2.90
2022-12-05T05:24:49.041Z,2.60
2022-12-05T05:27:40.969Z,2.40
2022-12-05T05:30:12.322Z,2.40
2022-12-05T05:32:45.588Z,2.40
2022-12-05T05:35:16.537Z,2.10
2022-12-05T05:37:46.956Z,2.13
2022-12-05T05:40:20.876Z,2.13
2022-12-05T05:42:51.919Z,2.10
2022-12-05T05:45:22.336Z,2.10
2022-12-05T05:47:52.656Z,2.40
2022-12-05T05:50:23.196Z,2.30
2022-12-05T05:53:12.047Z,2.53
2022-12-05T05:56:02.646Z,3.13
2022-12-05T05:58:32.670Z,8.03
2022-12-05T06:01:06.884Z,6.03
2022-12-05T06:03:55.494Z,4.33
2022-12-05T06:06:44.593Z,2.63
2022-12-05T06:09:14.714Z,3.23
2022-12-05T06:11:48.361Z,4.23
2022-12-05T06:14:36.973Z,3.60
2022-12-05T06:17:06.981Z,3.73
2022-12-05T06:19:37.311Z,3.80
2022-12-05T06:22:09.275Z,3.27
2022-12-05T06:24:39.496Z,3.97
2022-12-05T06:27:11.153Z,4.73
2022-12-05T06:29:40.992Z,3.67
2022-12-05T06:32:11.182Z,3.53
2022-12-05T06:34:41.611Z,4.00
2022-12-05T06:37:11.729Z,3.83
2022-12-05T06:39:42.262Z,3.57
2022-12-05T06:42:14.117Z,4.50
2022-12-05T06:44:44.245Z,5.20
2022-12-05T06:47:14.261Z,4.10
2022-12-05T06:49:44.373Z,10.30
2022-12-05T06:52:32.717Z,8.17
2022-12-05T06:55:03.041Z,4.70
2022-12-05T06:57:34.900Z,3.93
2022-12-05T07:00:20.166Z,4.20
2022-12-05T07:02:52.848Z,5.30
2022-12-05T07:05:23.498Z,5.27
2022-12-05T07:07:53.652Z,4.27
2022-12-05T07:10:24.749Z,3.97
2022-12-05T07:12:56.809Z,3.80
2022-12-05T07:15:26.831Z,4.40
2022-12-05T07:18:17.431Z,5.50
2022-12-05T07:21:11.351Z,5.23
2022-12-05T07:23:39.690Z,5.13
2022-12-05T07:26:15.226Z,8.30
2022-12-05T07:28:47.082Z,9.33
2022-12-05T07:31:23.135Z,14.67
2022-12-05T07:33:56.340Z,15.10
2022-12-05T07:36:45.302Z,17.40
2022-12-05T07:39:15.335Z,15.17
2022-12-05T07:41:45.955Z,10.03
2022-12-05T07:44:21.792Z,8.10
2022-12-05T07:46:54.584Z,9.40
2022-12-05T07:49:28.594Z,6.00
2022-12-05T07:51:59.124Z,4.27
2022-12-05T07:54:30.674Z,12.43
2022-12-05T07:57:00.482Z,13.17
2022-12-05T07:59:50.170Z,15.00
2022-12-05T08:02:23.412Z,16.70
2022-12-05T08:04:57.775Z,15.87
2022-12-05T08:07:33.481Z,13.07
2022-12-05T08:10:04.886Z,11.40
2022-12-05T08:12:35.704Z,12.47
2022-12-05T08:15:08.500Z,9.70
2022-12-05T08:17:38.811Z,8.93
2022-12-05T08:20:10.362Z,10.10
2022-12-05T08:22:40.892Z,9.03
2022-12-05T08:25:12.545Z,9.63
2022-12-05T08:27:47.782Z,9.70
2022-12-05T08:30:20.563Z,10.43
2022-12-05T08:32:50.483Z,15.73
2022-12-05T08:35:20.979Z,10.80
2022-12-05T08:37:56.975Z,11.70
2022-12-05T08:40:29.646Z,12.50
2022-12-05T08:43:01.413Z,13.90
2022-12-05T08:45:34.283Z,17.67
2022-12-05T08:48:04.207Z,16.70
2022-12-05T08:50:34.319Z,15.77
2022-12-05T08:53:04.746Z,11.57
2022-12-05T08:55:39.869Z,9.90
2022-12-05T08:58:12.263Z,8.03
2022-12-05T09:00:46.580Z,8.40
2022-12-05T09:03:17.406Z,11.53
2022-12-05T09:06:05.438Z,14.10
2022-12-05T09:08:35.661Z,8.90
2022-12-05T09:11:09.773Z,8.00
2022-12-05T09:14:01.100Z,6.83
2022-12-05T09:16:38.797Z,7.60
2022-12-05T09:19:28.046Z,6.70
2022-12-05T09:21:59.100Z,6.30
2022-12-05T09:24:29.423Z,8.43
2022-12-05T09:26:59.648Z,7.90
2022-12-05T09:29:33.669Z,4.60
2022-12-05T09:32:06.027Z,4.30
2022-12-05T09:34:36.463Z,4.40
2022-12-05T09:37:37.363Z,4.10
2022-12-05T09:40:05.060Z,4.10
2022-12-05T09:42:58.858Z,4.23
2022-12-05T09:45:36.228Z,3.20
2022-12-05T09:48:13.620Z,3.20
2022-12-05T09:50:51.197Z,3.70
2022-12-05T09:53:34.335Z,3.27
2022-12-05T09:56:08.680Z,2.80
2022-12-05T09:58:48.074Z,3.10
2022-12-05T10:01:42.284Z,2.70
2022-12-05T10:04:41.603Z,1.90
2022-12-05T10:07:33.673Z,1.77
2022-12-05T10:10:20.588Z,2.00
2022-12-05T10:13:06.395Z,1.90
2022-12-05T10:15:42.756Z,2.00
2022-12-05T10:18:39.060Z,2.30
2022-12-05T10:21:19.975Z,2.07
2022-12-05T10:23:59.745Z,2.43
2022-12-05T10:26:35.672Z,2.90
2022-12-05T10:29:21.553Z,2.77
2022-12-05T10:31:56.699Z,2.40
2022-12-05T10:34:50.878Z,2.30
2022-12-05T10:37:53.148Z,2.73
2022-12-05T10:40:24.289Z,2.70
2022-12-05T10:43:30.970Z,2.30
2022-12-05T10:46:20.573Z,2.33
2022-12-05T10:48:52.509Z,2.27
2022-12-05T10:51:37.362Z,2.37
2022-12-05T10:54:18.446Z,3.67
2022-12-05T10:56:50.922Z,3.07
2022-12-05T10:59:24.110Z,2.73
2022-12-05T11:01:57.704Z,2.60
2022-12-05T11:04:32.640Z,2.60
2022-12-05T11:07:04.518Z,2.80
2022-12-05T11:09:55.534Z,2.50
2022-12-05T11:12:29.050Z,2.83
2022-12-05T11:15:08.455Z,2.70
2022-12-05T11:17:58.875Z,2.97
2022-12-05T11:20:42.475Z,3.30
2022-12-05T11:23:31.243Z,3.63
2022-12-05T11:26:05.240Z,3.67
2022-12-05T11:28:38.537Z,4.00
2022-12-05T11:31:23.318Z,3.47
2022-12-05T11:34:16.772Z,4.10
2022-12-05T11:36:53.737Z,3.60
2022-12-05T11:39:28.259Z,3.57
2022-12-05T11:42:36.377Z,4.03
2022-12-05T11:45:32.507Z,5.23
2022-12-05T11:48:19.941Z,4.50
2022-12-05T11:51:05.097Z,4.30
2022-12-05T11:53:54.578Z,3.90
2022-12-05T11:56:49.576Z,3.47
2022-12-05T11:59:39.248Z,3.00
2022-12-05T12:02:20.941Z,6.73
2022-12-05T12:05:03.864Z,3.30
2022-12-05T12:08:01.381Z,4.27
2022-12-05T12:10:44.864Z,3.10
2022-12-05T12:13:36.780Z,2.83
2022-12-05T12:16:21.203Z,3.40
2022-12-05T12:19:22.389Z,3.30
2022-12-05T12:22:17.690Z,3.30
2022-12-05T12:25:11.988Z,3.47
2022-12-05T12:27:53.361Z,3.57
2022-12-05T12:30:28.704Z,3.30
2022-12-05T12:33:13.271Z,3.60
2022-12-05T12:35:54.449Z,3.60
2022-12-05T12:38:53.527Z,3.50
2022-12-05T12:41:57.451Z,3.90
2022-12-05T12:45:04.219Z,3.27
2022-12-05T12:47:52.881Z,3.90
2022-12-05T12:50:27.609Z,5.83
2022-12-05T13:04:04.733Z,5.33
2022-12-05T13:06:39.869Z,6.50
2022-12-05T16:31:23.776Z,32.63
2022-12-05T16:34:05.384Z,27.33
2022-12-05T16:36:34.860Z,28.03
2022-12-05T16:39:05.438Z,25.70
2022-12-05T16:41:36.433Z,23.00
2022-12-05T16:44:10.857Z,22.00
2022-12-05T16:46:48.493Z,25.50
2022-12-05T16:49:42.709Z,27.27
2022-12-05T16:52:16.022Z,26.20
2022-12-05T16:54:48.563Z,26.73
2022-12-05T16:57:18.741Z,25.90
2022-12-05T16:59:49.742Z,30.63
2022-12-05T17:02:20.873Z,24.00
2022-12-05T17:04:50.030Z,22.67
2022-12-05T17:07:19.084Z,32.20
2022-12-05T17:09:48.781Z,27.90
2022-12-05T17:12:24.004Z,28.40
2022-12-05T17:14:53.340Z,28.77
2022-12-05T17:17:23.870Z,29.10
2022-12-05T17:19:53.083Z,26.53
2022-12-05T17:22:22.176Z,27.50
2022-12-05T17:24:51.278Z,21.57
2022-12-05T17:27:20.315Z,25.27
2022-12-05T17:29:49.630Z,25.90
2022-12-05T17:32:18.628Z,18.10
2022-12-05T17:34:49.847Z,13.10
2022-12-05T17:37:18.960Z,14.87
2022-12-05T17:39:48.067Z,13.90
2022-12-05T17:42:17.242Z,14.60
2022-12-05T17:44:46.226Z,15.20
2022-12-05T17:47:15.374Z,18.00
2022-12-05T17:49:45.175Z,19.57
2022-12-05T17:52:23.598Z,14.97
2022-12-05T17:54:52.897Z,12.97
2022-12-05T17:57:21.909Z,13.57
2022-12-05T17:59:50.999Z,13.07
2022-12-05T18:02:20.329Z,12.80
2022-12-05T18:04:49.489Z,11.97
2022-12-05T18:07:20.196Z,13.80
2022-12-05T18:09:49.304Z,13.50
2022-12-05T18:12:18.390Z,15.10
2022-12-05T18:14:47.614Z,15.07
2022-12-05T18:17:16.862Z,15.43
2022-12-05T18:19:46.019Z,14.40
2022-12-05T18:22:17.193Z,14.33
2022-12-05T18:24:50.898Z,17.80
2022-12-05T18:27:20.135Z,21.33
2022-12-05T18:29:49.628Z,20.57
2022-12-05T18:32:19.555Z,20.40
2022-12-05T18:34:48.700Z,32.47
2022-12-05T18:37:18.578Z,32.47
2022-12-05T18:39:48.028Z,33.83
2022-12-05T18:42:18.623Z,36.87
2022-12-05T18:44:49.295Z,29.37
2022-12-05T18:47:18.377Z,28.57
2022-12-05T18:49:47.595Z,25.70
2022-12-05T18:52:16.621Z,25.13
2022-12-05T18:54:50.732Z,30.20
2022-12-05T18:57:28.687Z,28.90
2022-12-05T18:59:57.851Z,28.70
2022-12-05T19:02:26.910Z,27.90
2022-12-05T19:04:56.419Z,28.83
2022-12-05T19:07:25.557Z,29.73
2022-12-05T19:09:54.694Z,27.90
2022-12-05T19:12:23.782Z,29.53
2022-12-05T19:14:54.372Z,29.97
2022-12-05T19:17:25.000Z,33.07
2022-12-05T19:19:54.763Z,36.73
2022-12-05T19:22:24.060Z,35.03
2022-12-05T19:24:53.317Z,33.30
2022-12-05T19:27:22.478Z,31.07
2022-12-05T19:29:51.538Z,30.27
2022-12-05T19:32:22.128Z,27.97
2022-12-05T19:34:51.662Z,27.53
2022-12-05T19:37:20.756Z,25.03
2022-12-05T19:39:51.965Z,23.93
2022-12-05T19:42:21.106Z,22.63
2022-12-05T19:44:50.141Z,22.17
2022-12-05T19:47:20.698Z,20.87
2022-12-05T19:49:49.786Z,19.43
2022-12-05T19:52:18.831Z,19.17
2022-12-05T19:54:48.019Z,18.70
2022-12-05T19:57:18.272Z,21.23
2022-12-05T19:59:47.295Z,22.43
2022-12-05T20:02:16.510Z,20.03
2022-12-05T20:04:48.153Z,19.50
2022-12-05T20:07:17.927Z,18.70
2022-12-05T20:09:46.938Z,18.97
2022-12-05T20:12:16.118Z,20.93
2022-12-05T20:14:45.223Z,20.10
2022-12-05T20:17:14.252Z,20.67
2022-12-05T20:19:43.413Z,22.43
2022-12-05T20:22:14.011Z,20.93
2022-12-05T20:24:43.227Z,23.03
2022-12-05T20:27:12.306Z,23.40
2022-12-05T20:29:41.799Z,23.67
2022-12-05T20:32:11.037Z,25.80
2022-12-05T20:34:40.154Z,26.13
2022-12-05T20:37:09.157Z,26.03
2022-12-05T20:39:39.657Z,25.20
2022-12-05T20:42:08.834Z,26.43
2022-12-05T20:44:38.002Z,26.03
2022-12-05T20:47:07.149Z,26.07
2022-12-05T20:49:36.243Z,27.00
2022-12-05T20:52:05.318Z,26.63
2022-12-05T20:54:34.454Z,26.63
2022-12-05T20:57:05.122Z,26.70
2022-12-05T20:59:34.227Z,26.27
2022-12-05T21:02:03.472Z,27.33
2022-12-05T21:04:33.235Z,29.27
2022-12-05T21:07:02.224Z,30.63
2022-12-05T21:09:32.108Z,29.23
2022-12-05T21:12:01.390Z,28.20
2022-12-05T21:14:32.099Z,31.57
2022-12-05T21:17:01.369Z,33.60
2022-12-05T21:19:30.733Z,33.07
2022-12-05T21:21:59.805Z,34.03
2022-12-05T21:24:29.169Z,36.80
2022-12-05T21:26:58.317Z,38.17
2022-12-05T21:29:27.302Z,37.07
2022-12-05T21:31:57.796Z,37.70
2022-12-05T21:34:26.861Z,39.13
2022-12-05T21:36:55.996Z,38.90
2022-12-05T21:39:24.958Z,36.67
2022-12-05T21:41:54.062Z,37.57
2022-12-05T21:44:23.349Z,33.60
2022-12-05T21:46:53.606Z,35.03
2022-12-05T21:49:24.142Z,36.17
2022-12-05T21:51:53.202Z,32.70
2022-12-05T21:54:22.386Z,34.07
2022-12-05T21:56:51.473Z,34.17
2022-12-05T21:59:20.519Z,32.23
2022-12-05T22:01:51.133Z,34.53
2022-12-05T22:04:20.176Z,33.77
2022-12-05T22:06:50.560Z,34.80
2022-12-05T22:09:19.673Z,34.27
2022-12-05T22:11:48.777Z,35.10
2022-12-05T22:14:18.067Z,34.47
2022-12-05T22:16:47.221Z,33.93
2022-12-05T22:19:16.340Z,35.37
2022-12-05T22:21:45.551Z,35.13
2022-12-05T22:24:16.175Z,36.17
2022-12-05T22:26:45.227Z,35.10
2022-12-05T22:29:14.321Z,35.67
2022-12-05T22:31:43.500Z,33.83
2022-12-05T22:34:12.639Z,34.33
2022-12-05T22:36:41.575Z,35.13
2022-12-05T22:39:13.152Z,35.47
2022-12-05T22:41:43.741Z,35.60
2022-12-05T22:44:12.997Z,35.07
2022-12-05T22:46:42.130Z,36.50
2022-12-05T22:49:12.522Z,35.60
2022-12-05T22:51:41.490Z,35.57
2022-12-05T22:54:10.695Z,36.00
2022-12-05T22:56:39.678Z,36.47
2022-12-05T22:59:14.861Z,34.97
2022-12-05T23:01:44.093Z,35.43
2022-12-05T23:04:13.572Z,36.13
2022-12-05T23:06:42.844Z,40.00
2022-12-05T23:09:14.384Z,37.27
2022-12-05T23:11:43.591Z,36.27
2022-12-05T23:14:14.252Z,35.53
2022-12-05T23:16:43.409Z,37.97
2022-12-05T23:19:12.482Z,39.70
2022-12-05T23:21:42.262Z,38.03
2022-12-05T23:24:13.742Z,39.73
2022-12-05T23:26:44.924Z,39.13
2022-12-05T23:29:16.404Z,39.37
2022-12-05T23:31:45.791Z,38.20
2022-12-05T23:34:14.905Z,38.37
2022-12-05T23:36:44.197Z,37.53
2022-12-05T23:39:13.415Z,38.17
2022-12-05T23:41:42.465Z,37.80
2022-12-05T23:44:11.852Z,37.83
2022-12-05T23:46:42.394Z,37.67
2022-12-05T23:49:12.160Z,36.87
2022-12-05T23:51:41.350Z,36.10
2022-12-05T23:54:12.331Z,35.10
2022-12-05T23:56:41.664Z,37.27
2022-12-05T23:59:11.107Z,35.67
